PWSweather.com
Personal Weather Stations
Station Observations
SPARKSRC
St. Petersburg, FL 33716

St. Petersburg, FL 33716

Lat: 27.876101, Lon: -82.657194

Elevation: 13

Station Type: Zephyr PWS-1000TD

Latest ConditionsUpdated 5:05:02 PM EDT Saturday, Oct 25, 2014
Currently Today's Max Today's Min Today's Average
Temperature 80.2°F26.8°C 86.2°F30.1°C 63.1°F17.3°C 72.5°F22.5°C
Dew Point 60.5°F15.8°C 64.3°F17.9°C 58.1°F14.5°C 61.4°F16.3°C
Winds 4.5 mph NW7.2 kmh NW 11.4 mph N18.3 kmh N - 5.4 mph 8.7 kmh
Wind Gusts 13.0 mph20.9 kmh 16.8 mph27.0 kmh - -
Humidity 51% 97% 44% 71%
Pressure 29.90 in1012.5 mb 29.98 in1015.2 mb 29.89 in1012.2 mb -
Hour Temp Dew Point Humidity Winds Wind Gusts Pressure Precip Precip Rate Daily Precip Total
05:05 PM 80.2°F26.8°C 60.5°F15.8°C 51% 4.5 mph NW7.2 kmh NW 13.0 mph20.9 kmh 29.90 in1012.5 mb 0.00 in0.0 mm 0.00 in/hr0.0 mm/hr 0.00 in0.0 mm
05:00 PM 80.8°F27.1°C 60.5°F15.8°C 50% 7.6 mph NW12.2 kmh NW 13.6 mph21.9 kmh 29.90 in1012.5 mb 0.00 in0.0 mm 0.00 in/hr0.0 mm/hr 0.00 in0.0 mm
04:55 PM 81.3°F27.4°C 60.9°F16.1°C 50% 4.5 mph NW7.2 kmh NW 13.6 mph21.9 kmh 29.90 in1012.5 mb 0.00 in0.0 mm 0.00 in/hr0.0 mm/hr 0.00 in0.0 mm
04:50 PM 81.7°F27.6°C 61.3°F16.3°C 50% 2.2 mph NW3.5 kmh NW 13.6 mph21.9 kmh 29.90 in1012.5 mb 0.00 in0.0 mm 0.00 in/hr0.0 mm/hr 0.00 in0.0 mm
04:45 PM 81.7°F27.6°C 60.7°F15.9°C 49% 7.6 mph NW12.2 kmh NW 12.1 mph19.5 kmh 29.90 in1012.5 mb 0.00 in0.0 mm 0.00 in/hr0.0 mm/hr 0.00 in0.0 mm
04:40 PM 81.7°F27.6°C 60.7°F15.9°C 49% 6.0 mph NW9.7 kmh NW 13.6 mph21.9 kmh 29.90 in1012.5 mb 0.00 in0.0 mm 0.00 in/hr0.0 mm/hr 0.00 in0.0 mm
04:35 PM 81.5°F27.5°C 60.5°F15.8°C 49% 7.6 mph NW12.2 kmh NW 13.6 mph21.9 kmh 29.89 in1012.2 mb 0.00 in0.0 mm 0.00 in/hr0.0 mm/hr 0.00 in0.0 mm
04:30 PM 81.7°F27.6°C 60.1°F15.6°C 48% 6.0 mph NW9.7 kmh NW 13.6 mph21.9 kmh 29.89 in1012.2 mb 0.00 in0.0 mm 0.00 in/hr0.0 mm/hr 0.00 in0.0 mm
04:25 PM 82.0°F27.8°C 59.9°F15.5°C 47% 8.3 mph NW13.4 kmh NW 13.6 mph21.9 kmh 29.89 in1012.2 mb 0.00 in0.0 mm 0.00 in/hr0.0 mm/hr 0.00 in0.0 mm
04:20 PM 82.0°F27.8°C 59.9°F15.5°C 47% 6.0 mph NNW9.7 kmh NNW 13.0 mph20.9 kmh 29.90 in1012.5 mb 0.00 in0.0 mm 0.00 in/hr0.0 mm/hr 0.00 in0.0 mm
04:15 PM 82.2°F27.9°C 60.0°F15.6°C 47% 5.4 mph NW8.7 kmh NW 14.5 mph23.3 kmh 29.90 in1012.5 mb 0.00 in0.0 mm 0.00 in/hr0.0 mm/hr 0.00 in0.0 mm
04:10 PM 82.8°F28.2°C 60.5°F15.8°C 47% 6.9 mph NW11.1 kmh NW 14.5 mph23.3 kmh 29.90 in1012.5 mb 0.00 in0.0 mm 0.00 in/hr0.0 mm/hr 0.00 in0.0 mm
04:05 PM 82.8°F28.2°C 60.5°F15.8°C 47% 3.8 mph NNW6.1 kmh NNW 13.0 mph20.9 kmh 29.90 in1012.5 mb 0.00 in0.0 mm 0.00 in/hr0.0 mm/hr 0.00 in0.0 mm
04:00 PM 82.9°F28.3°C 60.7°F15.9°C 47% 6.0 mph NNW9.7 kmh NNW 13.0 mph20.9 kmh 29.90 in1012.5 mb 0.00 in0.0 mm 0.00 in/hr0.0 mm/hr 0.00 in0.0 mm
03:55 PM 83.1°F28.4°C 60.2°F15.7°C 46% 6.9 mph NW11.1 kmh NW 12.1 mph19.5 kmh 29.90 in1012.5 mb 0.00 in0.0 mm 0.00 in/hr0.0 mm/hr 0.00 in0.0 mm
03:50 PM 83.5°F28.6°C 60.6°F15.9°C 46% 8.3 mph NW13.4 kmh NW 13.6 mph21.9 kmh 29.89 in1012.2 mb 0.00 in0.0 mm 0.00 in/hr0.0 mm/hr 0.00 in0.0 mm
03:45 PM 83.1°F28.4°C 61.4°F16.3°C 48% 3.8 mph NW6.1 kmh NW 14.5 mph23.3 kmh 29.90 in1012.5 mb 0.00 in0.0 mm 0.00 in/hr0.0 mm/hr 0.00 in0.0 mm
03:40 PM 83.3°F28.5°C 60.4°F15.8°C 46% 9.8 mph NW15.8 kmh NW 14.5 mph23.3 kmh 29.90 in1012.5 mb 0.00 in0.0 mm 0.00 in/hr0.0 mm/hr 0.00 in0.0 mm
03:35 PM 83.7°F28.7°C 60.7°F15.9°C 46% 6.9 mph NW11.1 kmh NW 13.6 mph21.9 kmh 29.90 in1012.5 mb 0.00 in0.0 mm 0.00 in/hr0.0 mm/hr 0.00 in0.0 mm
03:30 PM 83.8°F28.8°C 60.9°F16.1°C 46% 6.0 mph NW9.7 kmh NW 13.6 mph21.9 kmh 29.90 in1012.5 mb 0.00 in0.0 mm 0.00 in/hr0.0 mm/hr 0.00 in0.0 mm
03:25 PM 83.7°F28.7°C 61.3°F16.3°C 47% 5.4 mph NW8.7 kmh NW 12.1 mph19.5 kmh 29.91 in1012.9 mb 0.00 in0.0 mm 0.00 in/hr0.0 mm/hr 0.00 in0.0 mm
03:20 PM 83.3°F28.5°C 61.0°F16.1°C 47% 6.0 mph NW9.7 kmh NW 13.6 mph21.9 kmh 29.90 in1012.5 mb 0.00 in0.0 mm 0.00 in/hr0.0 mm/hr 0.00 in0.0 mm
03:15 PM 84.0°F28.9°C 61.1°F16.2°C 46% 8.3 mph NNW13.4 kmh NNW 13.6 mph21.9 kmh 29.90 in1012.5 mb 0.00 in0.0 mm 0.00 in/hr0.0 mm/hr 0.00 in0.0 mm
03:10 PM 84.6°F29.2°C 61.6°F16.4°C 46% 8.3 mph NNW13.4 kmh NNW 13.0 mph20.9 kmh 29.90 in1012.5 mb 0.00 in0.0 mm 0.00 in/hr0.0 mm/hr 0.00 in0.0 mm
03:05 PM 84.2°F29.0°C 61.2°F16.2°C 46% 4.5 mph NW7.2 kmh NW 12.1 mph19.5 kmh 29.91 in1012.9 mb 0.00 in0.0 mm 0.00 in/hr0.0 mm/hr 0.00 in0.0 mm
03:00 PM 84.4°F29.1°C 61.4°F16.3°C 46% 6.0 mph NW9.7 kmh NW 12.1 mph19.5 kmh 29.91 in1012.9 mb 0.00 in0.0 mm 0.00 in/hr0.0 mm/hr 0.00 in0.0 mm
02:55 PM 84.4°F29.1°C 61.4°F16.3°C 46% 4.5 mph NW7.2 kmh NW 11.4 mph18.3 kmh 29.91 in1012.9 mb 0.00 in0.0 mm 0.00 in/hr0.0 mm/hr 0.00 in0.0 mm
02:50 PM 85.1°F29.5°C 61.4°F16.3°C 45% 6.9 mph NW11.1 kmh NW 11.4 mph18.3 kmh 29.91 in1012.9 mb 0.00 in0.0 mm 0.00 in/hr0.0 mm/hr 0.00 in0.0 mm
02:45 PM 85.8°F29.9°C 62.7°F17.1°C 46% 3.1 mph NW5.0 kmh NW 11.4 mph18.3 kmh 29.91 in1012.9 mb 0.00 in0.0 mm 0.00 in/hr0.0 mm/hr 0.00 in0.0 mm
02:40 PM 86.2°F30.1°C 61.8°F16.6°C 44% 5.4 mph NW8.7 kmh NW 11.4 mph18.3 kmh 29.91 in1012.9 mb 0.00 in0.0 mm 0.00 in/hr0.0 mm/hr 0.00 in0.0 mm
02:35 PM 86.2°F30.1°C 62.4°F16.9°C 45% 2.2 mph NW3.5 kmh NW 9.8 mph15.8 kmh 29.91 in1012.9 mb 0.00 in0.0 mm 0.00 in/hr0.0 mm/hr 0.00 in0.0 mm
02:30 PM 86.2°F30.1°C 62.4°F16.9°C 45% 7.6 mph NW12.2 kmh NW 9.8 mph15.8 kmh 29.91 in1012.9 mb 0.00 in0.0 mm 0.00 in/hr0.0 mm/hr 0.00 in0.0 mm
02:25 PM 85.1°F29.5°C 61.4°F16.3°C 45% 3.1 mph NW5.0 kmh NW 9.8 mph15.8 kmh 29.91 in1012.9 mb 0.00 in0.0 mm 0.00 in/hr0.0 mm/hr 0.00 in0.0 mm
02:20 PM 84.7°F29.3°C 61.1°F16.2°C 45% 5.4 mph NW8.7 kmh NW 11.4 mph18.3 kmh 29.91 in1012.9 mb 0.00 in0.0 mm 0.00 in/hr0.0 mm/hr 0.00 in0.0 mm
02:15 PM 84.4°F29.1°C 60.8°F16.0°C 45% 3.8 mph NNW6.1 kmh NNW 11.4 mph18.3 kmh 29.92 in1013.2 mb 0.00 in0.0 mm 0.00 in/hr0.0 mm/hr 0.00 in0.0 mm
02:10 PM 84.6°F29.2°C 61.6°F16.4°C 46% 4.5 mph N7.2 kmh N 9.2 mph14.8 kmh 29.92 in1013.2 mb 0.00 in0.0 mm 0.00 in/hr0.0 mm/hr 0.00 in0.0 mm
02:05 PM 84.0°F28.9°C 60.4°F15.8°C 45% 3.8 mph N6.1 kmh N 10.7 mph17.2 kmh 29.92 in1013.2 mb 0.00 in0.0 mm 0.00 in/hr0.0 mm/hr 0.00 in0.0 mm
02:00 PM 83.5°F28.6°C 60.6°F15.9°C 46% 6.0 mph N9.7 kmh N 10.7 mph17.2 kmh 29.92 in1013.2 mb 0.00 in0.0 mm 0.00 in/hr0.0 mm/hr 0.00 in0.0 mm
01:55 PM 83.8°F28.8°C 60.9°F16.1°C 46% 5.4 mph N8.7 kmh N 13.6 mph21.9 kmh 29.92 in1013.2 mb 0.00 in0.0 mm 0.00 in/hr0.0 mm/hr 0.00 in0.0 mm
01:50 PM 83.7°F28.7°C 61.3°F16.3°C 47% 3.8 mph N6.1 kmh N 13.6 mph21.9 kmh 29.93 in1013.5 mb 0.00 in0.0 mm 0.00 in/hr0.0 mm/hr 0.00 in0.0 mm
01:45 PM 84.4°F29.1°C 61.4°F16.3°C 46% 4.5 mph NNW7.2 kmh NNW 9.2 mph14.8 kmh 29.93 in1013.5 mb 0.00 in0.0 mm 0.00 in/hr0.0 mm/hr 0.00 in0.0 mm
01:40 PM 84.6°F29.2°C 61.6°F16.4°C 46% 4.5 mph NW7.2 kmh NW 9.2 mph14.8 kmh 29.93 in1013.5 mb 0.00 in0.0 mm 0.00 in/hr0.0 mm/hr 0.00 in0.0 mm
01:35 PM 84.7°F29.3°C 62.3°F16.8°C 47% 3.1 mph NW5.0 kmh NW 8.3 mph13.4 kmh 29.94 in1013.9 mb 0.00 in0.0 mm 0.00 in/hr0.0 mm/hr 0.00 in0.0 mm
01:30 PM 84.2°F29.0°C 63.0°F17.2°C 49% 3.1 mph W5.0 kmh W 6.9 mph11.1 kmh 29.94 in1013.9 mb 0.00 in0.0 mm 0.00 in/hr0.0 mm/hr 0.00 in0.0 mm
01:25 PM 83.8°F28.8°C 62.7°F17.1°C 49% 2.2 mph W3.5 kmh W 9.2 mph14.8 kmh 29.94 in1013.9 mb 0.00 in0.0 mm 0.00 in/hr0.0 mm/hr 0.00 in0.0 mm
01:20 PM 83.7°F28.7°C 61.9°F16.6°C 48% 3.8 mph NW6.1 kmh NW 10.7 mph17.2 kmh 29.94 in1013.9 mb 0.00 in0.0 mm 0.00 in/hr0.0 mm/hr 0.00 in0.0 mm
01:15 PM 83.5°F28.6°C 62.4°F16.9°C 49% 4.5 mph NW7.2 kmh NW 10.7 mph17.2 kmh 29.95 in1014.2 mb 0.00 in0.0 mm 0.00 in/hr0.0 mm/hr 0.00 in0.0 mm
01:10 PM 83.1°F28.4°C 62.6°F17.0°C 50% 1.6 mph NW2.6 kmh NW 9.2 mph14.8 kmh 29.95 in1014.2 mb 0.00 in0.0 mm 0.00 in/hr0.0 mm/hr 0.00 in0.0 mm
01:05 PM 82.9°F28.3°C 62.4°F16.9°C 50% 3.8 mph NNW6.1 kmh NNW 10.7 mph17.2 kmh 29.95 in1014.2 mb 0.00 in0.0 mm 0.00 in/hr0.0 mm/hr 0.00 in0.0 mm
01:00 PM 82.4°F28.0°C 61.9°F16.6°C 50% 5.4 mph NNW8.7 kmh NNW 10.7 mph17.2 kmh 29.95 in1014.2 mb 0.00 in0.0 mm 0.00 in/hr0.0 mm/hr 0.00 in0.0 mm
12:55 PM 82.4°F28.0°C 61.4°F16.3°C 49% 6.0 mph N9.7 kmh N 13.0 mph20.9 kmh 29.95 in1014.2 mb 0.00 in0.0 mm 0.00 in/hr0.0 mm/hr 0.00 in0.0 mm
12:50 PM 82.2°F27.9°C 61.8°F16.6°C 50% 2.2 mph N3.5 kmh N 13.6 mph21.9 kmh 29.96 in1014.6 mb 0.00 in0.0 mm 0.00 in/hr0.0 mm/hr 0.00 in0.0 mm
12:45 PM 81.7°F27.6°C 61.8°F16.6°C 51% 4.5 mph NNW7.2 kmh NNW 13.6 mph21.9 kmh 29.96 in1014.6 mb 0.00 in0.0 mm 0.00 in/hr0.0 mm/hr 0.00 in0.0 mm
12:40 PM 81.5°F27.5°C 61.1°F16.2°C 50% 6.9 mph N11.1 kmh N 12.1 mph19.5 kmh 29.96 in1014.6 mb 0.00 in0.0 mm 0.00 in/hr0.0 mm/hr 0.00 in0.0 mm
12:35 PM 81.0°F27.2°C 61.2°F16.2°C 51% 8.3 mph N13.4 kmh N 12.1 mph19.5 kmh 29.97 in1014.9 mb 0.00 in0.0 mm 0.00 in/hr0.0 mm/hr 0.00 in0.0 mm
12:30 PM 81.0°F27.2°C 60.6°F15.9°C 50% 6.0 mph NW9.7 kmh NW 12.1 mph19.5 kmh 29.96 in1014.6 mb 0.00 in0.0 mm 0.00 in/hr0.0 mm/hr 0.00 in0.0 mm
12:25 PM 81.0°F27.2°C 60.6°F15.9°C 50% 6.0 mph NNW9.7 kmh NNW 12.1 mph19.5 kmh 29.96 in1014.6 mb 0.00 in0.0 mm 0.00 in/hr0.0 mm/hr 0.00 in0.0 mm
12:20 PM 81.0°F27.2°C 60.0°F15.6°C 49% 5.4 mph N8.7 kmh N 15.2 mph24.5 kmh 29.97 in1014.9 mb 0.00 in0.0 mm 0.00 in/hr0.0 mm/hr 0.00 in0.0 mm
12:15 PM 80.4°F26.9°C 60.1°F15.6°C 50% 9.8 mph N15.8 kmh N 15.2 mph24.5 kmh 29.98 in1015.2 mb 0.00 in0.0 mm 0.00 in/hr0.0 mm/hr 0.00 in0.0 mm
12:10 PM 80.4°F26.9°C 59.0°F15.0°C 48% 9.2 mph N14.8 kmh N 13.6 mph21.9 kmh 29.97 in1014.9 mb 0.00 in0.0 mm 0.00 in/hr0.0 mm/hr 0.00 in0.0 mm
12:05 PM 80.2°F26.8°C 60.5°F15.8°C 51% 6.0 mph N9.7 kmh N 13.6 mph21.9 kmh 29.97 in1014.9 mb 0.00 in0.0 mm 0.00 in/hr0.0 mm/hr 0.00 in0.0 mm
12:00 PM 79.9°F26.6°C 60.2°F15.7°C 51% 6.9 mph N11.1 kmh N 13.6 mph21.9 kmh 29.97 in1014.9 mb 0.00 in0.0 mm 0.00 in/hr0.0 mm/hr 0.00 in0.0 mm
11:55 AM 79.3°F26.3°C 60.2°F15.7°C 52% 5.4 mph NNE8.7 kmh NNE 15.2 mph24.5 kmh 29.98 in1015.2 mb 0.00 in0.0 mm 0.00 in/hr0.0 mm/hr 0.00 in0.0 mm
11:50 AM 79.0°F26.1°C 59.3°F15.2°C 51% 9.8 mph NNE15.8 kmh NNE 15.2 mph24.5 kmh 29.97 in1014.9 mb 0.00 in0.0 mm 0.00 in/hr0.0 mm/hr 0.00 in0.0 mm
11:45 AM 78.8°F26.0°C 58.6°F14.8°C 50% 10.7 mph N17.2 kmh N 13.6 mph21.9 kmh 29.98 in1015.2 mb 0.00 in0.0 mm 0.00 in/hr0.0 mm/hr 0.00 in0.0 mm
11:40 AM 78.4°F25.8°C 58.9°F14.9°C 51% 10.7 mph N17.2 kmh N 16.8 mph27.0 kmh 29.97 in1014.9 mb 0.00 in0.0 mm 0.00 in/hr0.0 mm/hr 0.00 in0.0 mm
11:35 AM 78.3°F25.7°C 59.2°F15.1°C 52% 7.6 mph N12.2 kmh N 16.8 mph27.0 kmh 29.97 in1014.9 mb 0.00 in0.0 mm 0.00 in/hr0.0 mm/hr 0.00 in0.0 mm
11:30 AM 78.1°F25.6°C 59.1°F15.1°C 52% 11.4 mph N18.3 kmh N 14.5 mph23.3 kmh 29.97 in1014.9 mb 0.00 in0.0 mm 0.00 in/hr0.0 mm/hr 0.00 in0.0 mm
11:25 AM 77.7°F25.4°C 58.7°F14.8°C 52% 9.2 mph N14.8 kmh N 15.2 mph24.5 kmh 29.98 in1015.2 mb 0.00 in0.0 mm 0.00 in/hr0.0 mm/hr 0.00 in0.0 mm
11:20 AM 77.4°F25.2°C 59.5°F15.3°C 54% 7.6 mph N12.2 kmh N 15.2 mph24.5 kmh 29.98 in1015.2 mb 0.00 in0.0 mm 0.00 in/hr0.0 mm/hr 0.00 in0.0 mm
11:15 AM 77.2°F25.1°C 58.8°F14.9°C 53% 7.6 mph N12.2 kmh N 13.6 mph21.9 kmh 29.98 in1015.2 mb 0.00 in0.0 mm 0.00 in/hr0.0 mm/hr 0.00 in0.0 mm
11:10 AM 77.0°F25.0°C 59.1°F15.1°C 54% 6.9 mph N11.1 kmh N 13.0 mph20.9 kmh 29.97 in1014.9 mb 0.00 in0.0 mm 0.00 in/hr0.0 mm/hr 0.00 in0.0 mm
11:05 AM 76.6°F24.8°C 59.3°F15.2°C 55% 6.9 mph N11.1 kmh N 14.5 mph23.3 kmh 29.97 in1014.9 mb 0.00 in0.0 mm 0.00 in/hr0.0 mm/hr 0.00 in0.0 mm
11:00 AM 76.1°F24.5°C 58.8°F14.9°C 55% 9.8 mph N15.8 kmh N 14.5 mph23.3 kmh 29.97 in1014.9 mb 0.00 in0.0 mm 0.00 in/hr0.0 mm/hr 0.00 in0.0 mm
10:55 AM 75.7°F24.3°C 58.5°F14.7°C 55% 9.2 mph N14.8 kmh N 15.9 mph25.6 kmh 29.98 in1015.2 mb 0.00 in0.0 mm 0.00 in/hr0.0 mm/hr 0.00 in0.0 mm
10:50 AM 75.4°F24.1°C 58.1°F14.5°C 55% 10.7 mph N17.2 kmh N 15.9 mph25.6 kmh 29.98 in1015.2 mb 0.00 in0.0 mm 0.00 in/hr0.0 mm/hr 0.00 in0.0 mm
10:45 AM 75.2°F24.0°C 58.5°F14.7°C 56% 10.7 mph N17.2 kmh N 15.2 mph24.5 kmh 29.98 in1015.2 mb 0.00 in0.0 mm 0.00 in/hr0.0 mm/hr 0.00 in0.0 mm
10:40 AM 74.8°F23.8°C 58.1°F14.5°C 56% 11.4 mph N18.3 kmh N 13.6 mph21.9 kmh 29.98 in1015.2 mb 0.00 in0.0 mm 0.00 in/hr0.0 mm/hr 0.00 in0.0 mm
10:35 AM 74.7°F23.7°C 58.9°F14.9°C 58% 10.7 mph N17.2 kmh N 13.6 mph21.9 kmh 29.97 in1014.9 mb 0.00 in0.0 mm 0.00 in/hr0.0 mm/hr 0.00 in0.0 mm
10:30 AM 74.7°F23.7°C 59.4°F15.2°C 59% 8.3 mph N13.4 kmh N 14.5 mph23.3 kmh 29.98 in1015.2 mb 0.00 in0.0 mm 0.00 in/hr0.0 mm/hr 0.00 in0.0 mm
10:25 AM 74.5°F23.6°C 59.7°F15.4°C 60% 6.9 mph N11.1 kmh N 14.5 mph23.3 kmh 29.97 in1014.9 mb 0.00 in0.0 mm 0.00 in/hr0.0 mm/hr 0.00 in0.0 mm
10:20 AM 74.3°F23.5°C 59.5°F15.3°C 60% 7.6 mph N12.2 kmh N 13.0 mph20.9 kmh 29.97 in1014.9 mb 0.00 in0.0 mm 0.00 in/hr0.0 mm/hr 0.00 in0.0 mm
10:15 AM 74.1°F23.4°C 59.4°F15.2°C 60% 9.8 mph N15.8 kmh N 13.0 mph20.9 kmh 29.97 in1014.9 mb 0.00 in0.0 mm 0.00 in/hr0.0 mm/hr 0.00 in0.0 mm
10:10 AM 73.8°F23.2°C 59.0°F15.0°C 60% 8.3 mph N13.4 kmh N 11.4 mph18.3 kmh 29.97 in1014.9 mb 0.00 in0.0 mm 0.00 in/hr0.0 mm/hr 0.00 in0.0 mm
10:05 AM 73.6°F23.1°C 59.3°F15.2°C 61% 6.0 mph N9.7 kmh N 12.1 mph19.5 kmh 29.97 in1014.9 mb 0.00 in0.0 mm 0.00 in/hr0.0 mm/hr 0.00 in0.0 mm
10:00 AM 73.0°F22.8°C 59.3°F15.2°C 62% 6.9 mph N11.1 kmh N 13.0 mph20.9 kmh 29.97 in1014.9 mb 0.00 in0.0 mm 0.00 in/hr0.0 mm/hr 0.00 in0.0 mm
09:55 AM 72.5°F22.5°C 59.2°F15.1°C 63% 6.9 mph N11.1 kmh N 13.0 mph20.9 kmh 29.97 in1014.9 mb 0.00 in0.0 mm 0.00 in/hr0.0 mm/hr 0.00 in0.0 mm
09:50 AM 72.3°F22.4°C 58.6°F14.8°C 62% 9.2 mph N14.8 kmh N 13.6 mph21.9 kmh 29.96 in1014.6 mb 0.00 in0.0 mm 0.00 in/hr0.0 mm/hr 0.00 in0.0 mm
09:45 AM 72.0°F22.2°C 58.3°F14.6°C 62% 9.2 mph N14.8 kmh N 13.6 mph21.9 kmh 29.97 in1014.9 mb 0.00 in0.0 mm 0.00 in/hr0.0 mm/hr 0.00 in0.0 mm
09:40 AM 72.0°F22.2°C 58.3°F14.6°C 62% 9.8 mph N15.8 kmh N 15.2 mph24.5 kmh 29.96 in1014.6 mb 0.00 in0.0 mm 0.00 in/hr0.0 mm/hr 0.00 in0.0 mm
09:35 AM 71.6°F22.0°C 58.4°F14.7°C 63% 9.8 mph NNE15.8 kmh NNE 15.2 mph24.5 kmh 29.96 in1014.6 mb 0.00 in0.0 mm 0.00 in/hr0.0 mm/hr 0.00 in0.0 mm
09:30 AM 71.2°F21.8°C 58.9°F14.9°C 65% 9.8 mph NNE15.8 kmh NNE 11.4 mph18.3 kmh 29.96 in1014.6 mb 0.00 in0.0 mm 0.00 in/hr0.0 mm/hr 0.00 in0.0 mm
09:25 AM 70.9°F21.6°C 59.8°F15.4°C 68% 6.9 mph NNE11.1 kmh NNE 13.0 mph20.9 kmh 29.96 in1014.6 mb 0.00 in0.0 mm 0.00 in/hr0.0 mm/hr 0.00 in0.0 mm
09:20 AM 70.7°F21.5°C 59.6°F15.3°C 68% 6.9 mph N11.1 kmh N 13.0 mph20.9 kmh 29.96 in1014.6 mb 0.00 in0.0 mm 0.00 in/hr0.0 mm/hr 0.00 in0.0 mm
09:15 AM 70.5°F21.4°C 59.5°F15.3°C 68% 9.8 mph N15.8 kmh N 13.0 mph20.9 kmh 29.96 in1014.6 mb 0.00 in0.0 mm 0.00 in/hr0.0 mm/hr 0.00 in0.0 mm
09:10 AM 70.3°F21.3°C 59.7°F15.4°C 69% 6.9 mph N11.1 kmh N 9.2 mph14.8 kmh 29.96 in1014.6 mb 0.00 in0.0 mm 0.00 in/hr0.0 mm/hr 0.00 in0.0 mm
09:05 AM 70.2°F21.2°C 60.3°F15.7°C 71% 6.0 mph N9.7 kmh N 9.2 mph14.8 kmh 29.96 in1014.6 mb 0.00 in0.0 mm 0.00 in/hr0.0 mm/hr 0.00 in0.0 mm
09:00 AM 69.6°F20.9°C 60.6°F15.9°C 73% 3.8 mph N6.1 kmh N 9.2 mph14.8 kmh 29.96 in1014.6 mb 0.00 in0.0 mm 0.00 in/hr0.0 mm/hr 0.00 in0.0 mm
08:55 AM 69.3°F20.7°C 60.3°F15.7°C 73% 5.4 mph N8.7 kmh N 11.4 mph18.3 kmh 29.96 in1014.6 mb 0.00 in0.0 mm 0.00 in/hr0.0 mm/hr 0.00 in0.0 mm
08:50 AM 68.9°F20.5°C 59.9°F15.5°C 73% 6.0 mph N9.7 kmh N 11.4 mph18.3 kmh 29.95 in1014.2 mb 0.00 in0.0 mm 0.00 in/hr0.0 mm/hr 0.00 in0.0 mm
08:45 AM 68.9°F20.5°C 59.9°F15.5°C 73% 5.4 mph N8.7 kmh N 9.2 mph14.8 kmh 29.95 in1014.2 mb 0.00 in0.0 mm 0.00 in/hr0.0 mm/hr 0.00 in0.0 mm
08:40 AM 68.7°F20.4°C 60.1°F15.6°C 74% 6.0 mph N9.7 kmh N 9.2 mph14.8 kmh 29.96 in1014.6 mb 0.00 in0.0 mm 0.00 in/hr0.0 mm/hr 0.00 in0.0 mm
08:35 AM 68.4°F20.2°C 59.8°F15.4°C 74% 6.9 mph N11.1 kmh N 9.2 mph14.8 kmh 29.95 in1014.2 mb 0.00 in0.0 mm 0.00 in/hr0.0 mm/hr 0.00 in0.0 mm
08:30 AM 68.2°F20.1°C 60.4°F15.8°C 76% 4.5 mph N7.2 kmh N 8.3 mph13.4 kmh 29.95 in1014.2 mb 0.00 in0.0 mm 0.00 in/hr0.0 mm/hr 0.00 in0.0 mm
08:25 AM 67.8°F19.9°C 59.6°F15.3°C 75% 5.4 mph N8.7 kmh N 9.8 mph15.8 kmh 29.94 in1013.9 mb 0.00 in0.0 mm 0.00 in/hr0.0 mm/hr 0.00 in0.0 mm
08:20 AM 67.5°F19.7°C 59.3°F15.2°C 75% 5.4 mph N8.7 kmh N 12.1 mph19.5 kmh 29.95 in1014.2 mb 0.00 in0.0 mm 0.00 in/hr0.0 mm/hr 0.00 in0.0 mm
08:15 AM 67.1°F19.5°C 58.9°F14.9°C 75% 7.6 mph N12.2 kmh N 13.6 mph21.9 kmh 29.94 in1013.9 mb 0.00 in0.0 mm 0.00 in/hr0.0 mm/hr 0.00 in0.0 mm
08:10 AM 66.6°F19.2°C 59.1°F15.1°C 77% 8.3 mph N13.4 kmh N 13.6 mph21.9 kmh 29.95 in1014.2 mb 0.00 in0.0 mm 0.00 in/hr0.0 mm/hr 0.00 in0.0 mm
08:05 AM 66.2°F19.0°C 59.9°F15.5°C 80% 9.2 mph N14.8 kmh N 13.6 mph21.9 kmh 29.94 in1013.9 mb 0.00 in0.0 mm 0.00 in/hr0.0 mm/hr 0.00 in0.0 mm
08:00 AM 65.5°F18.6°C 59.9°F15.5°C 82% 6.9 mph N11.1 kmh N 10.7 mph17.2 kmh 29.94 in1013.9 mb 0.00 in0.0 mm 0.00 in/hr0.0 mm/hr 0.00 in0.0 mm
07:55 AM 64.9°F18.3°C 60.7°F15.9°C 86% 5.4 mph N8.7 kmh N 9.2 mph14.8 kmh 29.94 in1013.9 mb 0.00 in0.0 mm 0.00 in/hr0.0 mm/hr 0.00 in0.0 mm
07:50 AM 64.8°F18.2°C 60.5°F15.8°C 86% 3.8 mph N6.1 kmh N 9.2 mph14.8 kmh 29.95 in1014.2 mb 0.00 in0.0 mm 0.00 in/hr0.0 mm/hr 0.00 in0.0 mm
07:45 AM 64.6°F18.1°C 60.0°F15.6°C 85% 6.0 mph N9.7 kmh N 9.2 mph14.8 kmh 29.95 in1014.2 mb 0.00 in0.0 mm 0.00 in/hr0.0 mm/hr 0.00 in0.0 mm
07:40 AM 64.6°F18.1°C 60.0°F15.6°C 85% 3.8 mph N6.1 kmh N 8.3 mph13.4 kmh 29.95 in1014.2 mb 0.00 in0.0 mm 0.00 in/hr0.0 mm/hr 0.00 in0.0 mm
07:35 AM 64.6°F18.1°C 60.0°F15.6°C 85% 5.4 mph N8.7 kmh N 9.2 mph14.8 kmh 29.95 in1014.2 mb 0.00 in0.0 mm 0.00 in/hr0.0 mm/hr 0.00 in0.0 mm
07:30 AM 64.6°F18.1°C 59.7°F15.4°C 84% 4.5 mph N7.2 kmh N 9.2 mph14.8 kmh 29.95 in1014.2 mb 0.00 in0.0 mm 0.00 in/hr0.0 mm/hr 0.00 in0.0 mm
07:25 AM 64.8°F18.2°C 59.8°F15.4°C 84% 6.0 mph N9.7 kmh N 8.3 mph13.4 kmh 29.94 in1013.9 mb 0.00 in0.0 mm 0.00 in/hr0.0 mm/hr 0.00 in0.0 mm
07:20 AM 64.8°F18.2°C 59.5°F15.3°C 83% 3.8 mph N6.1 kmh N 7.6 mph12.2 kmh 29.94 in1013.9 mb 0.00 in0.0 mm 0.00 in/hr0.0 mm/hr 0.00 in0.0 mm
07:15 AM 64.9°F18.3°C 59.7°F15.4°C 83% 3.8 mph N6.1 kmh N 7.6 mph12.2 kmh 29.94 in1013.9 mb 0.00 in0.0 mm 0.00 in/hr0.0 mm/hr 0.00 in0.0 mm
07:10 AM 65.1°F18.4°C 59.8°F15.4°C 83% 3.8 mph N6.1 kmh N 6.9 mph11.1 kmh 29.94 in1013.9 mb 0.00 in0.0 mm 0.00 in/hr0.0 mm/hr 0.00 in0.0 mm
07:05 AM 65.1°F18.4°C 59.5°F15.3°C 82% 4.5 mph N7.2 kmh N 7.6 mph12.2 kmh 29.94 in1013.9 mb 0.00 in0.0 mm 0.00 in/hr0.0 mm/hr 0.00 in0.0 mm
07:00 AM 65.1°F18.4°C 59.5°F15.3°C 82% 4.5 mph NNE7.2 kmh NNE 8.3 mph13.4 kmh 29.94 in1013.9 mb 0.00 in0.0 mm 0.00 in/hr0.0 mm/hr 0.00 in0.0 mm
06:55 AM 65.1°F18.4°C 59.5°F15.3°C 82% 3.8 mph N6.1 kmh N 8.3 mph13.4 kmh 29.93 in1013.5 mb 0.00 in0.0 mm 0.00 in/hr0.0 mm/hr 0.00 in0.0 mm
06:50 AM 65.1°F18.4°C 59.8°F15.4°C 83% 6.0 mph N9.7 kmh N 8.3 mph13.4 kmh 29.93 in1013.5 mb 0.00 in0.0 mm 0.00 in/hr0.0 mm/hr 0.00 in0.0 mm
06:45 AM 65.3°F18.5°C 60.4°F15.8°C 84% 3.1 mph N5.0 kmh N 6.9 mph11.1 kmh 29.93 in1013.5 mb 0.00 in0.0 mm 0.00 in/hr0.0 mm/hr 0.00 in0.0 mm
06:40 AM 65.3°F18.5°C 60.4°F15.8°C 84% 2.2 mph N3.5 kmh N 7.6 mph12.2 kmh 29.93 in1013.5 mb 0.00 in0.0 mm 0.00 in/hr0.0 mm/hr 0.00 in0.0 mm
06:35 AM 65.3°F18.5°C 60.7°F15.9°C 85% 4.5 mph NNE7.2 kmh NNE 7.6 mph12.2 kmh 29.93 in1013.5 mb 0.00 in0.0 mm 0.00 in/hr0.0 mm/hr 0.00 in0.0 mm
06:30 AM 65.3°F18.5°C 60.7°F15.9°C 85% 3.8 mph N6.1 kmh N 8.3 mph13.4 kmh 29.93 in1013.5 mb 0.00 in0.0 mm 0.00 in/hr0.0 mm/hr 0.00 in0.0 mm
06:25 AM 65.3°F18.5°C 60.7°F15.9°C 85% 4.5 mph N7.2 kmh N 9.2 mph14.8 kmh 29.93 in1013.5 mb 0.00 in0.0 mm 0.00 in/hr0.0 mm/hr 0.00 in0.0 mm
06:20 AM 65.1°F18.4°C 60.8°F16.0°C 86% 5.4 mph N8.7 kmh N 9.2 mph14.8 kmh 29.93 in1013.5 mb 0.00 in0.0 mm 0.00 in/hr0.0 mm/hr 0.00 in0.0 mm
06:15 AM 65.1°F18.4°C 61.2°F16.2°C 87% 3.8 mph N6.1 kmh N 8.3 mph13.4 kmh 29.93 in1013.5 mb 0.00 in0.0 mm 0.00 in/hr0.0 mm/hr 0.00 in0.0 mm
06:10 AM 64.8°F18.2°C 61.1°F16.2°C 88% 5.4 mph N8.7 kmh N 9.2 mph14.8 kmh 29.93 in1013.5 mb 0.00 in0.0 mm 0.00 in/hr0.0 mm/hr 0.00 in0.0 mm
06:05 AM 64.8°F18.2°C 61.5°F16.4°C 89% 4.5 mph N7.2 kmh N 9.2 mph14.8 kmh 29.93 in1013.5 mb 0.00 in0.0 mm 0.00 in/hr0.0 mm/hr 0.00 in0.0 mm
06:00 AM 64.6°F18.1°C 61.6°F16.4°C 90% 6.0 mph N9.7 kmh N 9.2 mph14.8 kmh 29.93 in1013.5 mb 0.00 in0.0 mm 0.00 in/hr0.0 mm/hr 0.00 in0.0 mm
05:55 AM 64.2°F17.9°C 61.6°F16.4°C 91% 4.5 mph N7.2 kmh N 9.2 mph14.8 kmh 29.93 in1013.5 mb 0.00 in0.0 mm 0.00 in/hr0.0 mm/hr 0.00 in0.0 mm
05:50 AM 63.9°F17.7°C 61.5°F16.4°C 92% 6.0 mph N9.7 kmh N 8.3 mph13.4 kmh 29.93 in1013.5 mb 0.00 in0.0 mm 0.00 in/hr0.0 mm/hr 0.00 in0.0 mm
05:45 AM 63.7°F17.6°C 61.6°F16.4°C 93% 5.4 mph N8.7 kmh N 8.3 mph13.4 kmh 29.92 in1013.2 mb 0.00 in0.0 mm 0.00 in/hr0.0 mm/hr 0.00 in0.0 mm
05:40 AM 63.7°F17.6°C 61.9°F16.6°C 94% 4.5 mph N7.2 kmh N 6.9 mph11.1 kmh 29.93 in1013.5 mb 0.00 in0.0 mm 0.00 in/hr0.0 mm/hr 0.00 in0.0 mm
05:35 AM 63.5°F17.5°C 62.1°F16.7°C 95% 3.8 mph N6.1 kmh N 6.9 mph11.1 kmh 29.93 in1013.5 mb 0.00 in0.0 mm 0.00 in/hr0.0 mm/hr 0.00 in0.0 mm
05:30 AM 63.3°F17.4°C 61.9°F16.6°C 95% 3.1 mph NNE5.0 kmh NNE 6.9 mph11.1 kmh 29.92 in1013.2 mb 0.00 in0.0 mm 0.00 in/hr0.0 mm/hr 0.00 in0.0 mm
05:25 AM 63.3°F17.4°C 62.2°F16.8°C 96% 3.1 mph N5.0 kmh N 6.0 mph9.7 kmh 29.92 in1013.2 mb 0.00 in0.0 mm 0.00 in/hr0.0 mm/hr 0.00 in0.0 mm
05:20 AM 63.1°F17.3°C 62.0°F16.7°C 96% 3.1 mph N5.0 kmh N 5.4 mph8.7 kmh 29.92 in1013.2 mb 0.00 in0.0 mm 0.00 in/hr0.0 mm/hr 0.00 in0.0 mm
05:15 AM 63.3°F17.4°C 62.5°F16.9°C 97% 1.6 mph N2.6 kmh N 3.8 mph6.1 kmh 29.92 in1013.2 mb 0.00 in0.0 mm 0.00 in/hr0.0 mm/hr 0.00 in0.0 mm
05:10 AM 63.3°F17.4°C 62.5°F16.9°C 97% 1.6 mph N2.6 kmh N 3.1 mph5.0 kmh 29.92 in1013.2 mb 0.00 in0.0 mm 0.00 in/hr0.0 mm/hr 0.00 in0.0 mm
05:05 AM 63.5°F17.5°C 62.7°F17.1°C 97% 1.6 mph N2.6 kmh N 3.8 mph6.1 kmh 29.92 in1013.2 mb 0.00 in0.0 mm 0.00 in/hr0.0 mm/hr 0.00 in0.0 mm
05:00 AM 63.5°F17.5°C 62.7°F17.1°C 97% 1.6 mph N2.6 kmh N 3.8 mph6.1 kmh 29.92 in1013.2 mb 0.00 in0.0 mm 0.00 in/hr0.0 mm/hr 0.00 in0.0 mm
04:55 AM 63.7°F17.6°C 62.8°F17.1°C 97% 2.2 mph N3.5 kmh N 5.4 mph8.7 kmh 29.92 in1013.2 mb 0.00 in0.0 mm 0.00 in/hr0.0 mm/hr 0.00 in0.0 mm
04:50 AM 63.7°F17.6°C 62.8°F17.1°C 97% 3.1 mph N5.0 kmh N 5.4 mph8.7 kmh 29.92 in1013.2 mb 0.00 in0.0 mm 0.00 in/hr0.0 mm/hr 0.00 in0.0 mm
04:45 AM 63.9°F17.7°C 63.0°F17.2°C 97% 3.1 mph N5.0 kmh N 6.0 mph9.7 kmh 29.92 in1013.2 mb 0.00 in0.0 mm 0.00 in/hr0.0 mm/hr 0.00 in0.0 mm
04:40 AM 63.9°F17.7°C 63.0°F17.2°C 97% 3.1 mph N5.0 kmh N 6.0 mph9.7 kmh 29.92 in1013.2 mb 0.00 in0.0 mm 0.00 in/hr0.0 mm/hr 0.00 in0.0 mm
04:35 AM 63.9°F17.7°C 63.0°F17.2°C 97% 3.1 mph N5.0 kmh N 6.0 mph9.7 kmh 29.92 in1013.2 mb 0.00 in0.0 mm 0.00 in/hr0.0 mm/hr 0.00 in0.0 mm
04:30 AM 63.9°F17.7°C 62.7°F17.1°C 96% 3.8 mph N6.1 kmh N 6.0 mph9.7 kmh 29.92 in1013.2 mb 0.00 in0.0 mm 0.00 in/hr0.0 mm/hr 0.00 in0.0 mm
04:25 AM 64.0°F17.8°C 62.9°F17.2°C 96% 3.1 mph N5.0 kmh N 5.4 mph8.7 kmh 29.92 in1013.2 mb 0.00 in0.0 mm 0.00 in/hr0.0 mm/hr 0.00 in0.0 mm
04:20 AM 64.2°F17.9°C 62.8°F17.1°C 95% 3.1 mph N5.0 kmh N 4.5 mph7.2 kmh 29.91 in1012.9 mb 0.00 in0.0 mm 0.00 in/hr0.0 mm/hr 0.00 in0.0 mm
04:15 AM 64.2°F17.9°C 62.8°F17.1°C 95% 2.2 mph N3.5 kmh N 4.5 mph7.2 kmh 29.91 in1012.9 mb 0.00 in0.0 mm 0.00 in/hr0.0 mm/hr 0.00 in0.0 mm
04:10 AM 64.4°F18.0°C 63.0°F17.2°C 95% 2.2 mph N3.5 kmh N 5.4 mph8.7 kmh 29.91 in1012.9 mb 0.00 in0.0 mm 0.00 in/hr0.0 mm/hr 0.00 in0.0 mm
04:05 AM 64.6°F18.1°C 63.1°F17.3°C 95% 2.2 mph N3.5 kmh N 6.9 mph11.1 kmh 29.91 in1012.9 mb 0.00 in0.0 mm 0.00 in/hr0.0 mm/hr 0.00 in0.0 mm
04:00 AM 64.8°F18.2°C 63.3°F17.4°C 95% 3.8 mph N6.1 kmh N 6.9 mph11.1 kmh 29.91 in1012.9 mb 0.00 in0.0 mm 0.00 in/hr0.0 mm/hr 0.00 in0.0 mm
03:55 AM 64.8°F18.2°C 63.0°F17.2°C 94% 4.5 mph N7.2 kmh N 6.9 mph11.1 kmh 29.91 in1012.9 mb 0.00 in0.0 mm 0.00 in/hr0.0 mm/hr 0.00 in0.0 mm
03:50 AM 65.1°F18.4°C 63.4°F17.4°C 94% 3.1 mph N5.0 kmh N 6.9 mph11.1 kmh 29.91 in1012.9 mb 0.00 in0.0 mm 0.00 in/hr0.0 mm/hr 0.00 in0.0 mm
03:45 AM 65.1°F18.4°C 63.1°F17.3°C 93% 2.2 mph N3.5 kmh N 7.6 mph12.2 kmh 29.91 in1012.9 mb 0.00 in0.0 mm 0.00 in/hr0.0 mm/hr 0.00 in0.0 mm
03:40 AM 65.3°F18.5°C 63.2°F17.3°C 93% 2.2 mph N3.5 kmh N 7.6 mph12.2 kmh 29.92 in1013.2 mb 0.00 in0.0 mm 0.00 in/hr0.0 mm/hr 0.00 in0.0 mm
03:35 AM 65.5°F18.6°C 63.1°F17.3°C 92% 4.5 mph NNE7.2 kmh NNE 6.9 mph11.1 kmh 29.92 in1013.2 mb 0.00 in0.0 mm 0.00 in/hr0.0 mm/hr 0.00 in0.0 mm
03:30 AM 65.8°F18.8°C 63.5°F17.5°C 92% 2.2 mph N3.5 kmh N 9.2 mph14.8 kmh 29.92 in1013.2 mb 0.00 in0.0 mm 0.00 in/hr0.0 mm/hr 0.00 in0.0 mm
03:25 AM 66.0°F18.9°C 63.3°F17.4°C 91% 3.1 mph NNE5.0 kmh NNE 9.2 mph14.8 kmh 29.91 in1012.9 mb 0.00 in0.0 mm 0.00 in/hr0.0 mm/hr 0.00 in0.0 mm
03:20 AM 66.0°F18.9°C 63.3°F17.4°C 91% 4.5 mph NNE7.2 kmh NNE 9.2 mph14.8 kmh 29.92 in1013.2 mb 0.00 in0.0 mm 0.00 in/hr0.0 mm/hr 0.00 in0.0 mm
03:15 AM 66.0°F18.9°C 63.3°F17.4°C 91% 3.1 mph N5.0 kmh N 6.9 mph11.1 kmh 29.92 in1013.2 mb 0.00 in0.0 mm 0.00 in/hr0.0 mm/hr 0.00 in0.0 mm
03:10 AM 66.0°F18.9°C 63.3°F17.4°C 91% 3.8 mph NNE6.1 kmh NNE 6.0 mph9.7 kmh 29.92 in1013.2 mb 0.00 in0.0 mm 0.00 in/hr0.0 mm/hr 0.00 in0.0 mm
03:05 AM 66.0°F18.9°C 63.3°F17.4°C 91% 3.8 mph NE6.1 kmh NE 6.9 mph11.1 kmh 29.92 in1013.2 mb 0.00 in0.0 mm 0.00 in/hr0.0 mm/hr 0.00 in0.0 mm
03:00 AM 66.0°F18.9°C 63.7°F17.6°C 92% 2.2 mph NE3.5 kmh NE 7.6 mph12.2 kmh 29.92 in1013.2 mb 0.00 in0.0 mm 0.00 in/hr0.0 mm/hr 0.00 in0.0 mm
02:55 AM 66.2°F19.0°C 63.8°F17.7°C 92% 2.2 mph NE3.5 kmh NE 7.6 mph12.2 kmh 29.92 in1013.2 mb 0.00 in0.0 mm 0.00 in/hr0.0 mm/hr 0.00 in0.0 mm
02:50 AM 66.2°F19.0°C 63.8°F17.7°C 92% 3.1 mph NE5.0 kmh NE 6.9 mph11.1 kmh 29.93 in1013.5 mb 0.00 in0.0 mm 0.00 in/hr0.0 mm/hr 0.00 in0.0 mm
02:45 AM 66.2°F19.0°C 63.8°F17.7°C 92% 3.8 mph NE6.1 kmh NE 8.3 mph13.4 kmh 29.92 in1013.2 mb 0.00 in0.0 mm 0.00 in/hr0.0 mm/hr 0.00 in0.0 mm
02:40 AM 66.4°F19.1°C 64.0°F17.8°C 92% 3.8 mph NE6.1 kmh NE 8.3 mph13.4 kmh 29.92 in1013.2 mb 0.00 in0.0 mm 0.00 in/hr0.0 mm/hr 0.00 in0.0 mm
02:35 AM 66.4°F19.1°C 64.0°F17.8°C 92% 3.8 mph NE6.1 kmh NE 8.3 mph13.4 kmh 29.93 in1013.5 mb 0.00 in0.0 mm 0.00 in/hr0.0 mm/hr 0.00 in0.0 mm
02:30 AM 66.4°F19.1°C 64.0°F17.8°C 92% 5.4 mph NE8.7 kmh NE 8.3 mph13.4 kmh 29.92 in1013.2 mb 0.00 in0.0 mm 0.00 in/hr0.0 mm/hr 0.00 in0.0 mm
02:25 AM 66.4°F19.1°C 64.0°F17.8°C 92% 5.4 mph NE8.7 kmh NE 10.7 mph17.2 kmh 29.93 in1013.5 mb 0.00 in0.0 mm 0.00 in/hr0.0 mm/hr 0.00 in0.0 mm
02:20 AM 66.4°F19.1°C 64.0°F17.8°C 92% 3.8 mph NE6.1 kmh NE 12.1 mph19.5 kmh 29.92 in1013.2 mb 0.00 in0.0 mm 0.00 in/hr0.0 mm/hr 0.00 in0.0 mm
02:15 AM 66.6°F19.2°C 64.2°F17.9°C 92% 5.4 mph NE8.7 kmh NE 12.1 mph19.5 kmh 29.92 in1013.2 mb 0.00 in0.0 mm 0.00 in/hr0.0 mm/hr 0.00 in0.0 mm
02:10 AM 66.6°F19.2°C 64.2°F17.9°C 92% 4.5 mph NE7.2 kmh NE 10.7 mph17.2 kmh 29.92 in1013.2 mb 0.00 in0.0 mm 0.00 in/hr0.0 mm/hr 0.00 in0.0 mm
02:05 AM 66.6°F19.2°C 64.2°F17.9°C 92% 5.4 mph NE8.7 kmh NE 10.7 mph17.2 kmh 29.92 in1013.2 mb 0.00 in0.0 mm 0.00 in/hr0.0 mm/hr 0.00 in0.0 mm
02:00 AM 66.6°F19.2°C 64.2°F17.9°C 92% 5.4 mph NE8.7 kmh NE 10.7 mph17.2 kmh 29.92 in1013.2 mb 0.00 in0.0 mm 0.00 in/hr0.0 mm/hr 0.00 in0.0 mm
01:55 AM 66.6°F19.2°C 64.2°F17.9°C 92% 7.6 mph NE12.2 kmh NE 10.7 mph17.2 kmh 29.92 in1013.2 mb 0.00 in0.0 mm 0.00 in/hr0.0 mm/hr 0.00 in0.0 mm
01:50 AM 66.7°F19.3°C 64.1°F17.8°C 91% 4.5 mph NE7.2 kmh NE 9.8 mph15.8 kmh 29.93 in1013.5 mb 0.00 in0.0 mm 0.00 in/hr0.0 mm/hr 0.00 in0.0 mm
01:45 AM 66.7°F19.3°C 64.1°F17.8°C 91% 4.5 mph NE7.2 kmh NE 12.1 mph19.5 kmh 29.93 in1013.5 mb 0.00 in0.0 mm 0.00 in/hr0.0 mm/hr 0.00 in0.0 mm
01:40 AM 66.7°F19.3°C 64.1°F17.8°C 91% 3.8 mph NE6.1 kmh NE 12.1 mph19.5 kmh 29.93 in1013.5 mb 0.00 in0.0 mm 0.00 in/hr0.0 mm/hr 0.00 in0.0 mm
01:35 AM 66.6°F19.2°C 63.9°F17.7°C 91% 4.5 mph NE7.2 kmh NE 11.4 mph18.3 kmh 29.93 in1013.5 mb 0.00 in0.0 mm 0.00 in/hr0.0 mm/hr 0.00 in0.0 mm
01:30 AM 66.6°F19.2°C 63.9°F17.7°C 91% 4.5 mph NE7.2 kmh NE 9.2 mph14.8 kmh 29.93 in1013.5 mb 0.00 in0.0 mm 0.00 in/hr0.0 mm/hr 0.00 in0.0 mm
01:25 AM 66.6°F19.2°C 63.9°F17.7°C 91% 3.8 mph N6.1 kmh N 8.3 mph13.4 kmh 29.93 in1013.5 mb 0.00 in0.0 mm 0.00 in/hr0.0 mm/hr 0.00 in0.0 mm
01:15 AM 66.7°F19.3°C 64.1°F17.8°C 91% 4.5 mph N7.2 kmh N 11.4 mph18.3 kmh 29.93 in1013.5 mb 0.00 in0.0 mm 0.00 in/hr0.0 mm/hr 0.00 in0.0 mm
01:10 AM 66.7°F19.3°C 63.7°F17.6°C 90% 4.5 mph N7.2 kmh N 9.2 mph14.8 kmh 29.93 in1013.5 mb 0.00 in0.0 mm 0.00 in/hr0.0 mm/hr 0.00 in0.0 mm
01:05 AM 66.9°F19.4°C 64.2°F17.9°C 91% 6.0 mph N9.7 kmh N 9.2 mph14.8 kmh 29.93 in1013.5 mb 0.00 in0.0 mm 0.00 in/hr0.0 mm/hr 0.00 in0.0 mm
01:00 AM 66.9°F19.4°C 63.9°F17.7°C 90% 5.4 mph NNE8.7 kmh NNE 8.3 mph13.4 kmh 29.93 in1013.5 mb 0.00 in0.0 mm 0.00 in/hr0.0 mm/hr 0.00 in0.0 mm
12:55 AM 66.9°F19.4°C 63.9°F17.7°C 90% 6.0 mph NNE9.7 kmh NNE 8.3 mph13.4 kmh 29.93 in1013.5 mb 0.00 in0.0 mm 0.00 in/hr0.0 mm/hr 0.00 in0.0 mm
12:50 AM 66.9°F19.4°C 63.9°F17.7°C 90% 5.4 mph N8.7 kmh N 8.3 mph13.4 kmh 29.93 in1013.5 mb 0.00 in0.0 mm 0.00 in/hr0.0 mm/hr 0.00 in0.0 mm
12:45 AM 66.9°F19.4°C 63.9°F17.7°C 90% 5.4 mph NNE8.7 kmh NNE 8.3 mph13.4 kmh 29.93 in1013.5 mb 0.00 in0.0 mm 0.00 in/hr0.0 mm/hr 0.00 in0.0 mm
12:40 AM 67.1°F19.5°C 64.1°F17.8°C 90% 3.8 mph NNE6.1 kmh NNE 7.6 mph12.2 kmh 29.93 in1013.5 mb 0.00 in0.0 mm 0.00 in/hr0.0 mm/hr 0.00 in0.0 mm
12:35 AM 67.1°F19.5°C 64.1°F17.8°C 90% 4.5 mph NNE7.2 kmh NNE 7.6 mph12.2 kmh 29.93 in1013.5 mb 0.00 in0.0 mm 0.00 in/hr0.0 mm/hr 0.00 in0.0 mm
12:30 AM 67.1°F19.5°C 64.1°F17.8°C 90% 3.8 mph N6.1 kmh N 6.9 mph11.1 kmh 29.93 in1013.5 mb 0.00 in0.0 mm 0.00 in/hr0.0 mm/hr 0.00 in0.0 mm
12:25 AM 67.3°F19.6°C 64.0°F17.8°C 89% 2.2 mph NNE3.5 kmh NNE 6.0 mph9.7 kmh 29.94 in1013.9 mb 0.00 in0.0 mm 0.00 in/hr0.0 mm/hr 0.00 in0.0 mm
12:20 AM 67.5°F19.7°C 64.1°F17.8°C 89% 2.2 mph NNE3.5 kmh NNE 6.9 mph11.1 kmh 29.93 in1013.5 mb 0.00 in0.0 mm 0.00 in/hr0.0 mm/hr 0.00 in0.0 mm
12:15 AM 67.6°F19.8°C 64.0°F17.8°C 88% 2.2 mph NNE3.5 kmh NNE 6.9 mph11.1 kmh 29.93 in1013.5 mb 0.00 in0.0 mm 0.00 in/hr0.0 mm/hr 0.00 in0.0 mm
12:10 AM 67.8°F19.9°C 64.2°F17.9°C 88% 2.2 mph NE3.5 kmh NE 6.9 mph11.1 kmh 29.93 in1013.5 mb 0.00 in0.0 mm 0.00 in/hr0.0 mm/hr 0.00 in0.0 mm
12:05 AM 68.0°F20.0°C 64.3°F17.9°C 88% 3.8 mph NNE6.1 kmh NNE 6.9 mph11.1 kmh 29.93 in1013.5 mb 0.00 in0.0 mm 0.00 in/hr0.0 mm/hr 0.00 in0.0 mm
12:00 AM 68.2°F20.1°C 64.2°F17.9°C 87% 3.8 mph N6.1 kmh N 9.8 mph15.8 kmh 29.93 in1013.5 mb 0.00 in0.0 mm 0.00 in/hr0.0 mm/hr 0.00 in0.0 mm